sensor_id;sensor_type;location;lat;lon;timestamp;temperature;humidity
71291;DHT22;59073;51.994;4.448;2022-08-20T04:41:29;17.38;80.88
71291;DHT22;59073;51.994;4.448;2022-08-20T04:44:16;17.41;80.59
71291;DHT22;59073;51.994;4.448;2022-08-20T04:47:18;17.39;80.51
71291;DHT22;59073;51.994;4.448;2022-08-20T04:56:34;17.36;80.44
71291;DHT22;59073;51.994;4.448;2022-08-20T05:13:09;18.31;78.16
71291;DHT22;59073;51.994;4.448;2022-08-20T05:15:35;18.88;75.82
71291;DHT22;59073;51.994;4.448;2022-08-20T05:18:04;19.40;74.49
71291;DHT22;59073;51.994;4.448;2022-08-20T05:20:57;19.98;72.68
71291;DHT22;59073;51.994;4.448;2022-08-20T05:23:55;20.42;71.21
71291;DHT22;59073;51.994;4.448;2022-08-20T05:27:02;20.76;69.85
71291;DHT22;59073;51.994;4.448;2022-08-20T05:29:48;21.26;68.29
71291;DHT22;59073;51.994;4.448;2022-08-20T05:32:16;21.57;67.52
71291;DHT22;59073;51.994;4.448;2022-08-20T05:34:50;21.95;67.04
71291;DHT22;59073;51.994;4.448;2022-08-20T05:41:04;22.63;65.07
71291;DHT22;59073;51.994;4.448;2022-08-20T05:43:59;22.97;64.03
71291;DHT22;59073;51.994;4.448;2022-08-20T05:50:30;23.77;61.71
71291;DHT22;59073;51.994;4.448;2022-08-20T05:53:03;24.16;60.47
71291;DHT22;59073;51.994;4.448;2022-08-20T05:55:32;24.42;60.25
71291;DHT22;59073;51.994;4.448;2022-08-20T05:58:18;24.83;59.79
71291;DHT22;59073;51.994;4.448;2022-08-20T06:01:10;25.15;58.28
71291;DHT22;59073;51.994;4.448;2022-08-20T06:13:32;25.98;57.39
71291;DHT22;59073;51.994;4.448;2022-08-20T06:19:15;26.94;55.28
71291;DHT22;59073;51.994;4.448;2022-08-20T06:28:32;28.09;53.41
71291;DHT22;59073;51.994;4.448;2022-08-20T06:30:57;28.19;52.88
71291;DHT22;59073;51.994;4.448;2022-08-20T06:33:48;28.44;52.72
71291;DHT22;59073;51.994;4.448;2022-08-20T06:42:42;29.10;51.95
71291;DHT22;59073;51.994;4.448;2022-08-20T06:45:12;29.42;51.12
71291;DHT22;59073;51.994;4.448;2022-08-20T06:47:43;29.60;50.88
71291;DHT22;59073;51.994;4.448;2022-08-20T06:50:20;29.60;51.12
71291;DHT22;59073;51.994;4.448;2022-08-20T06:52:46;29.50;50.96
71291;DHT22;59073;51.994;4.448;2022-08-20T06:55:20;29.22;49.40
71291;DHT22;59073;51.994;4.448;2022-08-20T06:57:46;28.80;49.00
71291;DHT22;59073;51.994;4.448;2022-08-20T07:00:21;28.14;52.57
71291;DHT22;59073;51.994;4.448;2022-08-20T07:02:47;27.47;53.32
71291;DHT22;59073;51.994;4.448;2022-08-20T07:05:13;26.97;51.77
71291;DHT22;59073;51.994;4.448;2022-08-20T07:07:44;26.59;54.32
71291;DHT22;59073;51.994;4.448;2022-08-20T07:10:20;26.12;54.19
71291;DHT22;59073;51.994;4.448;2022-08-20T08:34:01;27.88;46.96
71291;DHT22;59073;51.994;4.448;2022-08-20T08:40:29;27.79;45.04
71291;DHT22;59073;51.994;4.448;2022-08-20T08:50:27;27.99;45.57
71291;DHT22;59073;51.994;4.448;2022-08-20T08:53:03;27.84;43.64
71291;DHT22;59073;51.994;4.448;2022-08-20T08:58:47;28.29;44.10
71291;DHT22;59073;51.994;4.448;2022-08-20T09:01:48;28.37;43.72
71291;DHT22;59073;51.994;4.448;2022-08-20T09:04:37;28.92;38.74
71291;DHT22;59073;51.994;4.448;2022-08-20T09:07:11;29.21;41.97
71291;DHT22;59073;51.994;4.448;2022-08-20T09:09:42;29.18;42.48
71291;DHT22;59073;51.994;4.448;2022-08-20T09:12:20;28.95;41.07
71291;DHT22;59073;51.994;4.448;2022-08-20T09:14:52;29.31;41.66
71291;DHT22;59073;51.994;4.448;2022-08-20T09:17:20;28.65;42.91
71291;DHT22;59073;51.994;4.448;2022-08-20T09:19:47;28.81;42.93
71291;DHT22;59073;51.994;4.448;2022-08-20T09:22:17;28.72;41.44
71291;DHT22;59073;51.994;4.448;2022-08-20T09:24:43;28.36;40.93
71291;DHT22;59073;51.994;4.448;2022-08-20T09:27:12;27.63;40.89
71291;DHT22;59073;51.994;4.448;2022-08-20T09:29:38;28.13;42.66
71291;DHT22;59073;51.994;4.448;2022-08-20T09:32:07;28.12;41.25
71291;DHT22;59073;51.994;4.448;2022-08-20T09:34:40;26.56;45.31
71291;DHT22;59073;51.994;4.448;2022-08-20T09:37:06;25.81;44.83
71291;DHT22;59073;51.994;4.448;2022-08-20T09:39:32;25.27;46.87
71291;DHT22;59073;51.994;4.448;2022-08-20T09:42:13;25.44;49.30
71291;DHT22;59073;51.994;4.448;2022-08-20T09:44:40;25.74;47.87
71291;DHT22;59073;51.994;4.448;2022-08-20T09:47:06;26.12;44.55
71291;DHT22;59073;51.994;4.448;2022-08-20T09:49:32;25.91;46.05
71291;DHT22;59073;51.994;4.448;2022-08-20T09:52:00;26.08;44.88
71291;DHT22;59073;51.994;4.448;2022-08-20T09:54:27;26.41;45.62
71291;DHT22;59073;51.994;4.448;2022-08-20T09:56:56;26.42;46.63
71291;DHT22;59073;51.994;4.448;2022-08-20T09:59:22;26.43;45.02
71291;DHT22;59073;51.994;4.448;2022-08-20T10:01:48;26.62;46.10
71291;DHT22;59073;51.994;4.448;2022-08-20T10:04:17;26.87;44.41
71291;DHT22;59073;51.994;4.448;2022-08-20T10:06:44;27.06;43.49
71291;DHT22;59073;51.994;4.448;2022-08-20T10:09:12;27.23;42.89
71291;DHT22;59073;51.994;4.448;2022-08-20T10:11:38;27.68;44.47
71291;DHT22;59073;51.994;4.448;2022-08-20T10:14:05;27.98;41.80
71291;DHT22;59073;51.994;4.448;2022-08-20T10:16:33;28.67;40.15
71291;DHT22;59073;51.994;4.448;2022-08-20T10:18:58;28.77;40.19
71291;DHT22;59073;51.994;4.448;2022-08-20T10:21:24;28.33;40.38
71291;DHT22;59073;51.994;4.448;2022-08-20T10:23:49;28.44;40.55
71291;DHT22;59073;51.994;4.448;2022-08-20T10:26:15;28.32;40.90
71291;DHT22;59073;51.994;4.448;2022-08-20T10:28:41;28.14;41.92
71291;DHT22;59073;51.994;4.448;2022-08-20T10:31:09;27.84;40.20
71291;DHT22;59073;51.994;4.448;2022-08-20T10:33:36;27.71;42.09
71291;DHT22;59073;51.994;4.448;2022-08-20T10:36:11;27.65;43.31
71291;DHT22;59073;51.994;4.448;2022-08-20T10:38:37;28.20;42.31
71291;DHT22;59073;51.994;4.448;2022-08-20T10:41:03;28.97;42.29
71291;DHT22;59073;51.994;4.448;2022-08-20T10:43:28;29.12;41.42
71291;DHT22;59073;51.994;4.448;2022-08-20T10:45:54;28.57;39.84
71291;DHT22;59073;51.994;4.448;2022-08-20T10:48:19;27.57;42.56
71291;DHT22;59073;51.994;4.448;2022-08-20T10:50:45;27.01;44.06
71291;DHT22;59073;51.994;4.448;2022-08-20T10:53:10;26.99;45.40
71291;DHT22;59073;51.994;4.448;2022-08-20T10:55:37;26.96;44.05
71291;DHT22;59073;51.994;4.448;2022-08-20T10:58:08;27.11;45.16
71291;DHT22;59073;51.994;4.448;2022-08-20T11:00:34;27.06;44.34
71291;DHT22;59073;51.994;4.448;2022-08-20T11:03:01;27.10;46.22
71291;DHT22;59073;51.994;4.448;2022-08-20T11:05:26;27.31;44.11
71291;DHT22;59073;51.994;4.448;2022-08-20T11:07:52;27.30;44.96
71291;DHT22;59073;51.994;4.448;2022-08-20T11:10:20;27.50;44.95
71291;DHT22;59073;51.994;4.448;2022-08-20T11:12:46;27.88;42.51
71291;DHT22;59073;51.994;4.448;2022-08-20T11:15:11;28.24;42.24
71291;DHT22;59073;51.994;4.448;2022-08-20T11:17:40;28.61;42.66
71291;DHT22;59073;51.994;4.448;2022-08-20T11:20:08;28.50;43.71
71291;DHT22;59073;51.994;4.448;2022-08-20T11:22:34;28.43;43.42
71291;DHT22;59073;51.994;4.448;2022-08-20T11:25:01;27.85;43.33
71291;DHT22;59073;51.994;4.448;2022-08-20T11:27:31;27.55;44.59
71291;DHT22;59073;51.994;4.448;2022-08-20T11:29:57;27.72;45.19
71291;DHT22;59073;51.994;4.448;2022-08-20T11:32:24;28.27;43.25
71291;DHT22;59073;51.994;4.448;2022-08-20T11:34:50;28.49;44.89
71291;DHT22;59073;51.994;4.448;2022-08-20T11:37:18;28.26;44.34
71291;DHT22;59073;51.994;4.448;2022-08-20T11:39:45;27.82;43.78
71291;DHT22;59073;51.994;4.448;2022-08-20T11:42:10;27.59;45.17
71291;DHT22;59073;51.994;4.448;2022-08-20T11:44:39;27.88;45.35
71291;DHT22;59073;51.994;4.448;2022-08-20T11:47:06;27.71;45.17
71291;DHT22;59073;51.994;4.448;2022-08-20T11:49:35;27.38;47.05
71291;DHT22;59073;51.994;4.448;2022-08-20T11:52:02;26.99;48.01
71291;DHT22;59073;51.994;4.448;2022-08-20T11:54:28;26.66;50.33
71291;DHT22;59073;51.994;4.448;2022-08-20T11:56:54;26.15;49.79
71291;DHT22;59073;51.994;4.448;2022-08-20T11:59:27;25.64;50.91
71291;DHT22;59073;51.994;4.448;2022-08-20T12:01:54;25.56;49.47
71291;DHT22;59073;51.994;4.448;2022-08-20T12:04:20;25.69;50.59
71291;DHT22;59073;51.994;4.448;2022-08-20T12:06:46;25.70;50.45
71291;DHT22;59073;51.994;4.448;2022-08-20T12:09:14;26.02;50.12
71291;DHT22;59073;51.994;4.448;2022-08-20T12:11:42;26.25;50.71
71291;DHT22;59073;51.994;4.448;2022-08-20T12:14:10;26.35;49.07
71291;DHT22;59073;51.994;4.448;2022-08-20T12:16:36;26.70;48.16
71291;DHT22;59073;51.994;4.448;2022-08-20T12:19:04;27.10;48.70
71291;DHT22;59073;51.994;4.448;2022-08-20T12:21:30;27.34;47.47
71291;DHT22;59073;51.994;4.448;2022-08-20T12:23:55;27.52;45.74
71291;DHT22;59073;51.994;4.448;2022-08-20T12:26:20;27.79;45.13
71291;DHT22;59073;51.994;4.448;2022-08-20T12:28:46;27.99;42.98
71291;DHT22;59073;51.994;4.448;2022-08-20T12:31:11;27.93;44.04
71291;DHT22;59073;51.994;4.448;2022-08-20T12:33:37;27.61;43.61
71291;DHT22;59073;51.994;4.448;2022-08-20T12:36:03;27.40;46.34
71291;DHT22;59073;51.994;4.448;2022-08-20T12:38:28;26.76;45.51
71291;DHT22;59073;51.994;4.448;2022-08-20T12:40:54;26.53;46.61
71291;DHT22;59073;51.994;4.448;2022-08-20T12:43:19;26.29;47.95
71291;DHT22;59073;51.994;4.448;2022-08-20T12:45:44;25.84;49.88
71291;DHT22;59073;51.994;4.448;2022-08-20T12:48:12;25.51;50.45
71291;DHT22;59073;51.994;4.448;2022-08-20T12:50:40;25.46;50.49
71291;DHT22;59073;51.994;4.448;2022-08-20T12:53:06;25.27;52.85
71291;DHT22;59073;51.994;4.448;2022-08-20T12:55:33;25.70;53.02
71291;DHT22;59073;51.994;4.448;2022-08-20T12:58:01;25.87;52.35
71291;DHT22;59073;51.994;4.448;2022-08-20T13:00:42;25.97;51.62
71291;DHT22;59073;51.994;4.448;2022-08-20T13:03:10;26.01;51.98
71291;DHT22;59073;51.994;4.448;2022-08-20T13:05:37;26.15;50.49
71291;DHT22;59073;51.994;4.448;2022-08-20T13:08:10;26.29;51.82
71291;DHT22;59073;51.994;4.448;2022-08-20T13:10:41;25.98;51.85
71291;DHT22;59073;51.994;4.448;2022-08-20T13:13:15;25.98;52.50
71291;DHT22;59073;51.994;4.448;2022-08-20T13:15:42;24.99;52.87
71291;DHT22;59073;51.994;4.448;2022-08-20T13:18:07;25.26;53.95
71291;DHT22;59073;51.994;4.448;2022-08-20T13:20:33;24.99;52.28
71291;DHT22;59073;51.994;4.448;2022-08-20T13:22:59;24.13;55.54
71291;DHT22;59073;51.994;4.448;2022-08-20T13:25:25;24.07;55.74
71291;DHT22;59073;51.994;4.448;2022-08-20T13:27:58;24.28;56.57
71291;DHT22;59073;51.994;4.448;2022-08-20T13:30:25;24.50;55.94
71291;DHT22;59073;51.994;4.448;2022-08-20T13:32:50;24.50;56.76
71291;DHT22;59073;51.994;4.448;2022-08-20T13:35:16;24.18;58.81
71291;DHT22;59073;51.994;4.448;2022-08-20T13:37:42;24.23;58.11
71291;DHT22;59073;51.994;4.448;2022-08-20T13:40:08;24.24;57.92
71291;DHT22;59073;51.994;4.448;2022-08-20T13:42:34;24.24;57.56
71291;DHT22;59073;51.994;4.448;2022-08-20T13:45:00;24.41;57.22
71291;DHT22;59073;51.994;4.448;2022-08-20T13:47:40;24.11;57.79
71291;DHT22;59073;51.994;4.448;2022-08-20T13:50:16;24.03;56.45
71291;DHT22;59073;51.994;4.448;2022-08-20T13:52:43;23.67;56.17
71291;DHT22;59073;51.994;4.448;2022-08-20T13:55:12;23.25;59.28
71291;DHT22;59073;51.994;4.448;2022-08-20T13:57:38;23.29;58.29
71291;DHT22;59073;51.994;4.448;2022-08-20T14:00:10;23.26;58.37
71291;DHT22;59073;51.994;4.448;2022-08-20T14:02:38;22.87;57.58
71291;DHT22;59073;51.994;4.448;2022-08-20T14:05:04;23.35;60.41
71291;DHT22;59073;51.994;4.448;2022-08-20T14:07:29;24.25;56.70
71291;DHT22;59073;51.994;4.448;2022-08-20T14:09:58;24.83;55.27
71291;DHT22;59073;51.994;4.448;2022-08-20T14:12:25;25.03;51.21
71291;DHT22;59073;51.994;4.448;2022-08-20T14:14:52;25.16;51.70
71291;DHT22;59073;51.994;4.448;2022-08-20T14:19:50;24.64;52.56
71291;DHT22;59073;51.994;4.448;2022-08-20T14:22:16;24.78;53.77
71291;DHT22;59073;51.994;4.448;2022-08-20T14:24:45;24.88;52.95
71291;DHT22;59073;51.994;4.448;2022-08-20T14:27:12;24.73;51.38
71291;DHT22;59073;51.994;4.448;2022-08-20T14:29:40;24.73;52.90
71291;DHT22;59073;51.994;4.448;2022-08-20T14:32:07;24.76;53.27
71291;DHT22;59073;51.994;4.448;2022-08-20T14:34:33;24.69;52.70
71291;DHT22;59073;51.994;4.448;2022-08-20T14:37:17;24.60;53.74
71291;DHT22;59073;51.994;4.448;2022-08-20T14:39:45;24.98;51.39
71291;DHT22;59073;51.994;4.448;2022-08-20T14:42:11;24.99;51.25
71291;DHT22;59073;51.994;4.448;2022-08-20T14:44:37;25.05;51.74
71291;DHT22;59073;51.994;4.448;2022-08-20T14:47:12;25.12;50.18
71291;DHT22;59073;51.994;4.448;2022-08-20T14:49:40;24.85;51.88
71291;DHT22;59073;51.994;4.448;2022-08-20T14:52:06;24.85;52.00
71291;DHT22;59073;51.994;4.448;2022-08-20T14:54:32;24.98;51.84
71291;DHT22;59073;51.994;4.448;2022-08-20T14:56:58;25.08;51.33
71291;DHT22;59073;51.994;4.448;2022-08-20T14:59:24;25.05;51.21
71291;DHT22;59073;51.994;4.448;2022-08-20T15:01:49;25.13;51.59
71291;DHT22;59073;51.994;4.448;2022-08-20T15:04:15;24.95;52.22
71291;DHT22;59073;51.994;4.448;2022-08-20T15:06:44;24.88;51.22
71291;DHT22;59073;51.994;4.448;2022-08-20T15:09:12;24.91;51.20
71291;DHT22;59073;51.994;4.448;2022-08-20T15:11:38;24.82;51.28
71291;DHT22;59073;51.994;4.448;2022-08-20T15:14:06;24.83;51.95
71291;DHT22;59073;51.994;4.448;2022-08-20T15:16:31;24.68;50.16
71291;DHT22;59073;51.994;4.448;2022-08-20T15:18:57;24.72;52.65
71291;DHT22;59073;51.994;4.448;2022-08-20T15:21:23;24.61;51.19
71291;DHT22;59073;51.994;4.448;2022-08-20T15:23:48;24.42;51.04
71291;DHT22;59073;51.994;4.448;2022-08-20T15:26:14;24.44;52.35
71291;DHT22;59073;51.994;4.448;2022-08-20T15:28:39;24.50;52.62
71291;DHT22;59073;51.994;4.448;2022-08-20T15:31:10;24.51;51.27
71291;DHT22;59073;51.994;4.448;2022-08-20T15:33:36;24.30;52.41
71291;DHT22;59073;51.994;4.448;2022-08-20T15:36:01;24.30;51.43
71291;DHT22;59073;51.994;4.448;2022-08-20T15:38:27;24.34;52.36
71291;DHT22;59073;51.994;4.448;2022-08-20T15:40:53;24.23;52.50
71291;DHT22;59073;51.994;4.448;2022-08-20T15:43:19;23.92;52.51
71291;DHT22;59073;51.994;4.448;2022-08-20T15:45:44;23.77;53.24
71291;DHT22;59073;51.994;4.448;2022-08-20T15:48:17;23.74;54.25
71291;DHT22;59073;51.994;4.448;2022-08-20T15:53:20;23.79;54.57
71291;DHT22;59073;51.994;4.448;2022-08-20T15:56:01;23.90;54.42
71291;DHT22;59073;51.994;4.448;2022-08-20T15:58:48;23.70;53.71
71291;DHT22;59073;51.994;4.448;2022-08-20T16:04:28;23.42;53.80
71291;DHT22;59073;51.994;4.448;2022-08-20T16:07:17;23.51;53.89
71291;DHT22;59073;51.994;4.448;2022-08-20T16:09:52;23.49;53.36
71291;DHT22;59073;51.994;4.448;2022-08-20T16:12:38;23.59;53.98
71291;DHT22;59073;51.994;4.448;2022-08-20T16:15:15;23.55;54.26
71291;DHT22;59073;51.994;4.448;2022-08-20T16:17:50;23.51;54.02
71291;DHT22;59073;51.994;4.448;2022-08-20T16:20:25;23.46;53.26
71291;DHT22;59073;51.994;4.448;2022-08-20T16:22:53;23.52;54.16
71291;DHT22;59073;51.994;4.448;2022-08-20T16:25:19;23.51;53.29
71291;DHT22;59073;51.994;4.448;2022-08-20T16:28:17;23.46;53.69
71291;DHT22;59073;51.994;4.448;2022-08-20T16:30:48;23.46;54.05
71291;DHT22;59073;51.994;4.448;2022-08-20T16:36:24;23.42;53.02
71291;DHT22;59073;51.994;4.448;2022-08-20T16:38:58;23.38;53.54
71291;DHT22;59073;51.994;4.448;2022-08-20T16:41:43;23.35;53.92
71291;DHT22;59073;51.994;4.448;2022-08-20T16:49:28;23.15;54.46
71291;DHT22;59073;51.994;4.448;2022-08-20T16:51:57;23.16;53.55
71291;DHT22;59073;51.994;4.448;2022-08-20T16:54:23;23.01;53.74
71291;DHT22;59073;51.994;4.448;2022-08-20T16:57:04;23.02;54.27
71291;DHT22;59073;51.994;4.448;2022-08-20T16:59:31;23.05;54.96
71291;DHT22;59073;51.994;4.448;2022-08-20T17:02:09;23.12;54.38
71291;DHT22;59073;51.994;4.448;2022-08-20T17:04:47;23.21;54.35
71291;DHT22;59073;51.994;4.448;2022-08-20T17:07:23;23.23;53.98
71291;DHT22;59073;51.994;4.448;2022-08-20T17:09:49;23.29;54.08
71291;DHT22;59073;51.994;4.448;2022-08-20T17:12:23;23.26;54.43
71291;DHT22;59073;51.994;4.448;2022-08-20T17:14:56;23.29;54.67
71291;DHT22;59073;51.994;4.448;2022-08-20T17:17:34;23.28;53.97
71291;DHT22;59073;51.994;4.448;2022-08-20T17:20:14;23.28;53.63
71291;DHT22;59073;51.994;4.448;2022-08-20T17:22:46;23.18;54.53
71291;DHT22;59073;51.994;4.448;2022-08-20T17:25:31;23.18;55.63
71291;DHT22;59073;51.994;4.448;2022-08-20T17:27:57;23.21;55.85
71291;DHT22;59073;51.994;4.448;2022-08-20T17:30:36;23.19;55.79
71291;DHT22;59073;51.994;4.448;2022-08-20T17:33:05;23.07;56.34
71291;DHT22;59073;51.994;4.448;2022-08-20T17:35:37;23.01;56.84
71291;DHT22;59073;51.994;4.448;2022-08-20T17:38:04;23.00;57.48
71291;DHT22;59073;51.994;4.448;2022-08-20T17:40:37;23.05;56.93
71291;DHT22;59073;51.994;4.448;2022-08-20T17:43:08;23.07;57.23
71291;DHT22;59073;51.994;4.448;2022-08-20T17:45:40;23.01;56.93
71291;DHT22;59073;51.994;4.448;2022-08-20T17:48:25;22.98;57.31
71291;DHT22;59073;51.994;4.448;2022-08-20T17:50:52;22.97;57.98
71291;DHT22;59073;51.994;4.448;2022-08-20T17:53:25;22.83;57.66
71291;DHT22;59073;51.994;4.448;2022-08-20T17:55:58;22.80;57.91
71291;DHT22;59073;51.994;4.448;2022-08-20T17:58:42;22.80;58.12
71291;DHT22;59073;51.994;4.448;2022-08-20T18:01:13;22.74;57.94
71291;DHT22;59073;51.994;4.448;2022-08-20T18:03:38;22.74;58.39
71291;DHT22;59073;51.994;4.448;2022-08-20T18:06:15;22.70;59.05
71291;DHT22;59073;51.994;4.448;2022-08-20T18:09:07;22.70;58.83
71291;DHT22;59073;51.994;4.448;2022-08-20T18:11:48;22.60;59.54
71291;DHT22;59073;51.994;4.448;2022-08-20T18:14:48;22.54;60.00
71291;DHT22;59073;51.994;4.448;2022-08-20T18:22:44;23.15;58.46
71291;DHT22;59073;51.994;4.448;2022-08-20T18:25:31;23.42;56.88
71291;DHT22;59073;51.994;4.448;2022-08-20T18:28:17;23.51;57.17
71291;DHT22;59073;51.994;4.448;2022-08-20T18:30:57;23.52;57.18
71291;DHT22;59073;51.994;4.448;2022-08-20T18:33:27;23.59;56.41
71291;DHT22;59073;51.994;4.448;2022-08-20T18:38:30;23.31;57.16
71291;DHT22;59073;51.994;4.448;2022-08-20T18:41:14;23.07;57.90
71291;DHT22;59073;51.994;4.448;2022-08-20T18:44:45;22.80;58.24
71291;DHT22;59073;51.994;4.448;2022-08-20T18:46:55;22.49;58.96
71291;DHT22;59073;51.994;4.448;2022-08-20T18:49:40;22.10;59.89
71291;DHT22;59073;51.994;4.448;2022-08-20T18:52:23;21.71;62.27
71291;DHT22;59073;51.994;4.448;2022-08-20T18:54:53;21.37;63.19
71291;DHT22;59073;51.994;4.448;2022-08-20T18:57:23;21.13;63.63
71291;DHT22;59073;51.994;4.448;2022-08-20T18:59:59;21.02;64.04
71291;DHT22;59073;51.994;4.448;2022-08-20T19:02:29;20.86;64.23
71291;DHT22;59073;51.994;4.448;2022-08-20T19:04:59;20.72;64.69
71291;DHT22;59073;51.994;4.448;2022-08-20T19:07:34;20.57;65.77
71291;DHT22;59073;51.994;4.448;2022-08-20T19:15:24;19.92;68.02
71291;DHT22;59073;51.994;4.448;2022-08-20T19:18:11;19.78;68.57
71291;DHT22;59073;51.994;4.448;2022-08-20T19:20:53;19.70;68.76
71291;DHT22;59073;51.994;4.448;2022-08-20T19:23:46;19.59;69.06
71291;DHT22;59073;51.994;4.448;2022-08-20T19:33:43;19.37;69.34
71291;DHT22;59073;51.994;4.448;2022-08-20T19:36:50;19.42;68.71
71291;DHT22;59073;51.994;4.448;2022-08-20T19:46:46;19.30;69.88
71291;DHT22;59073;51.994;4.448;2022-08-20T19:59:26;18.96;71.10
71291;DHT22;59073;51.994;4.448;2022-08-20T20:01:58;19.03;70.29
71291;DHT22;59073;51.994;4.448;2022-08-20T20:11:01;19.18;71.08
71291;DHT22;59073;51.994;4.448;2022-08-20T20:16:52;19.16;70.66
71291;DHT22;59073;51.994;4.448;2022-08-20T20:22:57;19.05;70.95
71291;DHT22;59073;51.994;4.448;2022-08-20T20:25:45;19.03;70.77
71291;DHT22;59073;51.994;4.448;2022-08-20T20:28:29;19.09;70.61
71291;DHT22;59073;51.994;4.448;2022-08-20T20:38:11;19.27;70.87
71291;DHT22;59073;51.994;4.448;2022-08-20T20:41:05;19.27;70.67
71291;DHT22;59073;51.994;4.448;2022-08-20T20:50:57;19.06;71.49
71291;DHT22;59073;51.994;4.448;2022-08-20T20:57:09;18.84;73.75
71291;DHT22;59073;51.994;4.448;2022-08-20T21:03:04;19.02;73.38
71291;DHT22;59073;51.994;4.448;2022-08-20T21:05:42;18.95;72.38
71291;DHT22;59073;51.994;4.448;2022-08-20T21:08:20;18.85;73.10
71291;DHT22;59073;51.994;4.448;2022-08-20T21:11:15;18.85;73.11
71291;DHT22;59073;51.994;4.448;2022-08-20T21:13:55;18.82;72.97
71291;DHT22;59073;51.994;4.448;2022-08-20T21:16:26;18.79;72.91
71291;DHT22;59073;51.994;4.448;2022-08-20T21:18:54;18.78;73.02
71291;DHT22;59073;51.994;4.448;2022-08-20T21:21:20;18.79;73.38
71291;DHT22;59073;51.994;4.448;2022-08-20T21:23:48;18.87;73.60
71291;DHT22;59073;51.994;4.448;2022-08-20T21:26:14;18.94;73.36
71291;DHT22;59073;51.994;4.448;2022-08-20T21:28:45;18.95;73.24
71291;DHT22;59073;51.994;4.448;2022-08-20T21:31:40;18.96;73.00
71291;DHT22;59073;51.994;4.448;2022-08-20T21:34:29;18.96;73.58
71291;DHT22;59073;51.994;4.448;2022-08-20T21:37:11;18.92;73.70
71291;DHT22;59073;51.994;4.448;2022-08-20T21:39:45;18.98;73.51
71291;DHT22;59073;51.994;4.448;2022-08-20T21:46:02;19.02;73.10
